Time;durP1;ratioP1;P1;durP2;ratioP2;P2;SDS_P1;SDS_P2;PMS_P1;PMS_P2;Temp;Humidity;BMP_temperature;BMP_pressure;BME280_temperature;BME280_humidity;BME280_pressure;Samples;Min_cycle;Max_cycle;Signal;HPM_P1;HPM_P2
2021/04/26 00:01:18;;;;;;;3.17;1.55;;;21.10;36.70;;;;;;5093741;28;20396;-48
2021/04/26 00:03:43;;;;;;;4.95;1.35;;;21.00;36.60;;;;;;5093611;28;20683;-46
2021/04/26 00:06:09;;;;;;;4.03;1.25;;;21.00;36.50;;;;;;5093072;28;20035;-50
2021/04/26 00:08:35;;;;;;;3.90;1.00;;;21.00;36.50;;;;;;5093921;28;20031;-51
2021/04/26 00:11:01;;;;;;;2.78;1.20;;;21.00;36.50;;;;;;5093198;28;20024;-45
2021/04/26 00:13:27;;;;;;;3.60;1.10;;;21.00;36.50;;;;;;5094068;28;20032;-51
2021/04/26 00:15:53;;;;;;;1.83;1.30;;;21.00;36.50;;;;;;5093486;28;20036;-54
2021/04/26 00:18:18;;;;;;;3.72;1.30;;;21.00;36.40;;;;;;5093021;28;20082;-47
2021/04/26 00:20:44;;;;;;;2.08;1.20;;;21.00;36.40;;;;;;5093892;28;20465;-50
2021/04/26 00:23:10;;;;;;;4.00;1.20;;;21.00;36.40;;;;;;5092758;28;20032;-50
2021/04/26 00:25:36;;;;;;;2.33;1.10;;;21.00;36.40;;;;;;5093370;28;20032;-48
2021/04/26 00:28:02;;;;;;;4.47;1.30;;;21.00;36.50;;;;;;5091752;28;20039;-49
2021/04/26 00:30:29;;;;;;;2.28;1.02;;;21.00;36.60;;;;;;5084423;28;20059;-54
2021/04/26 00:32:55;;;;;;;2.42;1.13;;;21.00;36.40;;;;;;5091848;28;20034;-53
2021/04/26 00:35:21;;;;;;;3.38;1.35;;;21.00;36.40;;;;;;5093168;28;20064;-49
2021/04/26 00:37:48;;;;;;;5.68;1.40;;;21.00;36.50;;;;;;5093179;28;20115;-47
2021/04/26 00:40:15;;;;;;;2.53;1.40;;;21.00;36.50;;;;;;5093013;28;20031;-51
2021/04/26 00:42:41;;;;;;;5.22;1.55;;;21.00;36.50;;;;;;5093065;28;20024;-51
2021/04/26 00:45:10;;;;;;;2.40;1.48;;;21.00;36.60;;;;;;5092667;28;20140;-50
2021/04/26 00:47:37;;;;;;;2.88;1.55;;;21.00;36.60;;;;;;5093375;28;20085;-52
2021/04/26 00:50:06;;;;;;;2.47;1.13;;;21.00;36.50;;;;;;5092098;28;20431;-49
2021/04/26 00:52:33;;;;;;;2.15;1.05;;;21.00;36.50;;;;;;5093400;28;20111;-55
2021/04/26 00:55:00;;;;;;;3.63;1.00;;;21.00;36.40;;;;;;5092145;28;20078;-51
2021/04/26 00:57:26;;;;;;;3.53;1.20;;;21.00;36.50;;;;;;5092751;28;20028;-46
2021/04/26 00:59:51;;;;;;;2.05;1.02;;;21.00;36.40;;;;;;5093319;28;20046;-55
2021/04/26 01:02:17;;;;;;;2.78;1.35;;;21.00;36.60;;;;;;5092951;28;20090;-50
2021/04/26 01:04:42;;;;;;;2.78;0.90;;;21.00;36.50;;;;;;5093543;28;20094;-47
2021/04/26 01:07:08;;;;;;;2.35;1.08;;;21.00;36.40;;;;;;5092383;28;20096;-53
2021/04/26 01:09:34;;;;;;;2.33;1.08;;;21.00;36.50;;;;;;5092606;28;20034;-51
2021/04/26 01:12:23;;;;;;;4.70;1.27;;;21.00;36.60;;;;;;5092233;28;20028;-50
2021/04/26 01:14:59;;;;;;;2.80;1.52;;;21.00;36.60;;;;;;5092322;28;20082;-51
2021/04/26 01:17:30;;;;;;;3.38;1.10;;;21.00;36.40;;;;;;5091323;28;20028;-49
2021/04/26 01:20:14;;;;;;;3.33;1.10;;;21.00;36.50;;;;;;5091792;28;20024;-52
2021/04/26 01:23:10;;;;;;;2.15;1.05;;;21.00;36.50;;;;;;5091155;28;20020;-52
2021/04/26 01:25:39;;;;;;;2.65;1.15;;;21.00;36.50;;;;;;5083251;28;20039;-46
2021/04/26 01:28:10;;;;;;;2.03;1.30;;;21.00;36.40;;;;;;5091060;28;20036;-49
2021/04/26 01:30:45;;;;;;;5.93;1.30;;;21.00;36.40;;;;;;5092734;28;20031;-50
2021/04/26 01:33:23;;;;;;;2.72;1.17;;;21.00;36.40;;;;;;5091524;28;20485;-49
2021/04/26 01:35:51;;;;;;;2.97;1.35;;;21.00;36.40;;;;;;5087094;28;20046;-51
2021/04/26 01:38:21;;;;;;;3.30;1.65;;;21.00;36.50;;;;;;5089241;28;20089;-47
2021/04/26 01:40:50;;;;;;;2.08;1.08;;;21.00;36.70;;;;;;5086471;28;20035;-50
2021/04/26 01:43:20;;;;;;;3.42;0.90;;;21.00;36.70;;;;;;5084953;28;20563;-52
2021/04/26 01:45:46;;;;;;;2.28;1.08;;;21.00;36.60;;;;;;5087400;28;20036;-53
2021/04/26 01:48:13;;;;;;;1.55;1.05;;;21.00;36.50;;;;;;5084797;28;20508;-51
2021/04/26 01:50:40;;;;;;;1.92;0.80;;;21.00;36.50;;;;;;5086795;28;20695;-50
2021/04/26 01:53:06;;;;;;;1.42;0.90;;;21.00;36.50;;;;;;5082911;28;20024;-46
2021/04/26 01:55:32;;;;;;;1.80;1.10;;;21.00;36.50;;;;;;5082496;28;20048;-49
2021/04/26 01:57:58;;;;;;;2.78;0.90;;;20.90;36.50;;;;;;5086030;28;20054;-50
2021/04/26 02:00:28;;;;;;;4.20;1.40;;;21.00;36.40;;;;;;5087001;28;20028;-49
2021/04/26 02:02:55;;;;;;;2.88;1.60;;;21.00;36.50;;;;;;5085706;28;20369;-52
2021/04/26 02:05:21;;;;;;;1.80;1.00;;;21.00;36.50;;;;;;5085759;28;20060;-50
2021/04/26 02:07:48;;;;;;;1.83;1.10;;;20.90;36.40;;;;;;5087320;28;20060;-49
2021/04/26 02:10:17;;;;;;;8.10;1.15;;;20.90;36.40;;;;;;5083131;28;20205;-55
2021/04/26 02:12:44;;;;;;;2.60;1.15;;;20.90;36.40;;;;;;5085018;28;20032;-52
2021/04/26 02:15:13;;;;;;;2.33;1.00;;;20.90;36.30;;;;;;5086152;28;20072;-50
2021/04/26 02:17:40;;;;;;;3.50;1.35;;;20.90;36.30;;;;;;5084884;28;20024;-51
2021/04/26 02:20:08;;;;;;;5.18;1.60;;;21.00;36.50;;;;;;5082221;28;20118;-54
2021/04/26 02:22:34;;;;;;;5.50;1.30;;;20.90;37.00;;;;;;5084866;28;20085;-55
2021/04/26 02:25:00;;;;;;;2.38;1.10;;;20.90;36.30;;;;;;5087015;28;20435;-55
2021/04/26 02:27:26;;;;;;;3.65;1.05;;;21.00;36.40;;;;;;5082862;28;20028;-49
2021/04/26 02:29:52;;;;;;;2.40;1.15;;;20.90;36.30;;;;;;5085985;28;20070;-49
2021/04/26 02:32:29;;;;;;;5.00;1.35;;;20.90;36.40;;;;;;5085220;28;20040;-51
2021/04/26 02:34:58;;;;;;;1.77;1.10;;;20.90;36.30;;;;;;5084825;28;20039;-56
2021/04/26 02:37:34;;;;;;;2.17;1.17;;;20.90;36.40;;;;;;5089132;28;20027;-45
2021/04/26 02:40:06;;;;;;;2.78;1.23;;;20.90;36.30;;;;;;5082079;28;20465;-49
2021/04/26 02:42:43;;;;;;;2.67;1.23;;;20.90;36.50;;;;;;5081790;28;20028;-51
2021/04/26 02:45:12;;;;;;;1.92;0.95;;;20.90;36.40;;;;;;5086878;28;20094;-55
2021/04/26 02:47:41;;;;;;;2.83;1.50;;;20.90;36.40;;;;;;5084467;28;20032;-53
2021/04/26 02:50:08;;;;;;;3.25;1.30;;;20.90;36.40;;;;;;5084856;28;20033;-50
2021/04/26 02:52:35;;;;;;;3.65;1.10;;;20.90;36.30;;;;;;5087633;28;20464;-51
2021/04/26 02:55:03;;;;;;;2.78;1.02;;;20.90;36.40;;;;;;5078509;28;20078;-47
2021/04/26 02:57:33;;;;;;;1.92;0.93;;;20.90;36.40;;;;;;5087043;28;20077;-47
2021/04/26 03:00:00;;;;;;;2.15;1.48;;;20.90;36.40;;;;;;5085544;28;20511;-49
2021/04/26 03:02:26;;;;;;;2.17;1.30;;;20.90;36.40;;;;;;5083600;28;20381;-51
2021/04/26 03:04:52;;;;;;;2.35;0.93;;;20.90;36.40;;;;;;5085086;28;20056;-51
2021/04/26 03:07:19;;;;;;;1.90;0.90;;;20.90;36.40;;;;;;5081314;28;20062;-49
2021/04/26 03:09:46;;;;;;;2.88;1.42;;;20.90;36.30;;;;;;5084283;28;20087;-50
2021/04/26 03:12:13;;;;;;;2.22;1.10;;;20.90;36.40;;;;;;5076566;28;20761;-49
2021/04/26 03:14:40;;;;;;;3.83;1.52;;;20.90;36.40;;;;;;5086014;28;20032;-50
2021/04/26 03:17:06;;;;;;;1.98;0.93;;;20.90;36.40;;;;;;5086572;28;20059;-52
2021/04/26 03:19:33;;;;;;;3.65;1.35;;;20.90;36.30;;;;;;5083472;28;20036;-48
2021/04/26 03:21:59;;;;;;;2.35;1.55;;;20.90;36.40;;;;;;5085854;28;20455;-52
2021/04/26 03:24:25;;;;;;;6.05;1.17;;;20.90;36.50;;;;;;5085569;28;20137;-53
2021/04/26 03:26:54;;;;;;;2.22;1.10;;;20.90;36.40;;;;;;5079750;28;20063;-51
2021/04/26 03:29:21;;;;;;;2.90;1.55;;;20.90;36.40;;;;;;5078410;28;20025;-50
2021/04/26 03:31:48;;;;;;;2.97;1.20;;;20.90;36.40;;;;;;5078133;28;20107;-48
2021/04/26 03:34:14;;;;;;;2.40;1.23;;;20.90;36.30;;;;;;5069979;28;20055;-49
2021/04/26 03:36:40;;;;;;;3.17;1.42;;;20.90;36.40;;;;;;5069845;28;20359;-53
2021/04/26 03:39:12;;;;;;;4.38;1.55;;;20.90;36.50;;;;;;5070239;28;20121;-47
2021/04/26 03:41:38;;;;;;;2.85;1.23;;;20.90;36.50;;;;;;5074888;28;20028;-50
2021/04/26 03:44:05;;;;;;;1.73;1.15;;;20.90;36.40;;;;;;5091403;28;20049;-50
2021/04/26 03:46:32;;;;;;;3.17;1.38;;;20.90;36.40;;;;;;5094895;28;20096;-52
2021/04/26 03:48:58;;;;;;;2.13;1.00;;;20.90;36.50;;;;;;5091836;28;20016;-55
2021/04/26 03:51:23;;;;;;;2.55;1.08;;;20.90;36.40;;;;;;5093845;28;20381;-51
2021/04/26 03:53:49;;;;;;;3.15;1.30;;;20.90;36.50;;;;;;5094453;28;20480;-47
2021/04/26 03:56:14;;;;;;;1.70;0.90;;;20.90;36.30;;;;;;5093815;28;20043;-52
2021/04/26 03:58:40;;;;;;;2.50;1.00;;;20.90;36.40;;;;;;5094693;28;20039;-47
2021/04/26 04:01:06;;;;;;;2.45;1.20;;;20.90;36.40;;;;;;5094066;28;20025;-52
2021/04/26 04:03:31;;;;;;;2.75;1.55;;;20.80;36.40;;;;;;5094427;28;20063;-52
2021/04/26 04:05:57;;;;;;;2.75;1.60;;;20.90;36.40;;;;;;5093898;28;20465;-54
2021/04/26 04:08:23;;;;;;;1.85;1.20;;;20.90;36.50;;;;;;5088961;28;20031;-50
2021/04/26 04:10:48;;;;;;;5.00;1.15;;;20.80;36.40;;;;;;5093548;28;20025;-48
2021/04/26 04:13:14;;;;;;;2.58;1.40;;;20.90;36.40;;;;;;5093591;28;20036;-49
2021/04/26 04:15:39;;;;;;;2.47;1.17;;;20.80;36.40;;;;;;5094175;28;20495;-45
2021/04/26 04:18:05;;;;;;;4.85;1.02;;;20.90;36.40;;;;;;5093605;28;20028;-51
2021/04/26 04:20:31;;;;;;;4.47;1.50;;;20.90;36.40;;;;;;5094202;28;20537;-52
2021/04/26 04:22:56;;;;;;;4.32;1.30;;;20.90;36.40;;;;;;5093594;28;20032;-55
2021/04/26 04:25:22;;;;;;;1.83;1.02;;;20.90;36.40;;;;;;5093808;28;20036;-48
2021/04/26 04:27:48;;;;;;;4.43;1.50;;;20.90;36.40;;;;;;5093978;28;20370;-51
2021/04/26 04:30:15;;;;;;;2.33;1.38;;;20.90;36.40;;;;;;5093411;28;20456;-50
2021/04/26 04:32:41;;;;;;;2.15;1.10;;;20.80;36.40;;;;;;5094294;28;20112;-50
2021/04/26 04:35:07;;;;;;;3.35;1.30;;;20.90;36.50;;;;;;5093113;28;20040;-48
2021/04/26 04:37:33;;;;;;;2.00;1.20;;;20.90;36.40;;;;;;5093782;28;20081;-45
2021/04/26 04:39:59;;;;;;;1.90;1.00;;;20.80;36.30;;;;;;5093258;28;20419;-54
2021/04/26 04:42:25;;;;;;;2.53;1.40;;;20.80;36.30;;;;;;5094094;28;20024;-48
2021/04/26 04:44:50;;;;;;;2.72;1.50;;;20.90;36.50;;;;;;5093954;28;20032;-53
2021/04/26 04:47:16;;;;;;;1.75;1.00;;;20.90;36.40;;;;;;5093045;28;20190;-48
2021/04/26 04:49:42;;;;;;;2.75;1.00;;;20.80;36.40;;;;;;5093915;28;20020;-51
2021/04/26 04:52:07;;;;;;;2.60;1.38;;;20.90;36.40;;;;;;5091606;28;20028;-45
2021/04/26 04:54:33;;;;;;;3.83;1.48;;;20.90;36.40;;;;;;5093539;28;20054;-52
2021/04/26 04:56:59;;;;;;;2.67;0.95;;;20.90;36.50;;;;;;5093455;28;20366;-56
2021/04/26 04:59:25;;;;;;;2.67;1.10;;;20.90;36.50;;;;;;5093555;28;20016;-48
2021/04/26 05:01:50;;;;;;;1.58;0.95;;;20.80;36.40;;;;;;5088493;28;20380;-46
2021/04/26 05:04:16;;;;;;;2.17;1.10;;;20.80;36.50;;;;;;5091431;28;20048;-54
2021/04/26 05:06:42;;;;;;;2.58;1.20;;;20.90;36.40;;;;;;5093558;28;20032;-47
2021/04/26 05:09:08;;;;;;;2.38;1.40;;;20.80;36.30;;;;;;5092076;28;20039;-49
2021/04/26 05:11:34;;;;;;;2.35;1.50;;;20.90;36.40;;;;;;5093226;28;20469;-53
2021/04/26 05:14:00;;;;;;;3.28;1.00;;;20.90;36.30;;;;;;5092719;28;20111;-55
2021/04/26 05:16:27;;;;;;;2.25;1.40;;;20.80;36.40;;;;;;5093393;28;20036;-51
2021/04/26 05:18:53;;;;;;;1.88;1.08;;;20.80;36.30;;;;;;5093234;28;20051;-52
2021/04/26 05:21:19;;;;;;;2.55;1.00;;;20.80;36.40;;;;;;5091981;28;20111;-53
2021/04/26 05:23:45;;;;;;;3.40;1.10;;;20.90;36.40;;;;;;5093084;28;20066;-52
2021/04/26 05:26:10;;;;;;;3.20;1.30;;;20.80;36.30;;;;;;5091949;28;20040;-50
2021/04/26 05:28:36;;;;;;;4.15;1.30;;;20.80;36.20;;;;;;5081176;28;20035;-48
2021/04/26 05:31:02;;;;;;;3.75;1.33;;;20.80;35.40;;;;;;5071931;28;20024;-50
2021/04/26 05:33:27;;;;;;;4.22;1.50;;;20.80;35.50;;;;;;5072765;28;20020;-48
2021/04/26 05:35:53;;;;;;;3.60;1.38;;;20.80;35.80;;;;;;5072246;28;20064;-50
2021/04/26 05:38:19;;;;;;;6.40;1.50;;;20.80;35.80;;;;;;5071628;28;20025;-46
2021/04/26 05:40:48;;;;;;;6.18;1.33;;;20.80;35.70;;;;;;5072434;28;20489;-49
2021/04/26 05:43:14;;;;;;;7.22;2.53;;;20.80;37.20;;;;;;5071804;28;20025;-53
2021/04/26 05:45:41;;;;;;;7.90;2.20;;;20.80;32.80;;;;;;5072383;28;20082;-52
2021/04/26 05:48:06;;;;;;;8.77;2.10;;;20.70;33.80;;;;;;5088319;28;20032;-52
2021/04/26 05:50:32;;;;;;;6.75;1.77;;;20.70;30.70;;;;;;5091824;28;20024;-48
2021/04/26 05:52:59;;;;;;;4.47;1.75;;;20.70;31.00;;;;;;5092493;28;20052;-54
2021/04/26 05:55:25;;;;;;;5.75;2.78;;;20.70;30.40;;;;;;5087025;28;20051;-47
2021/04/26 05:57:50;;;;;;;17.35;4.68;;;20.70;31.70;;;;;;5091054;28;20035;-47
2021/04/26 06:00:17;;;;;;;10.27;3.40;;;20.60;34.30;;;;;;5090764;28;20385;-49
2021/04/26 06:02:42;;;;;;;6.35;2.42;;;20.60;34.70;;;;;;5092481;28;20109;-49
2021/04/26 06:05:09;;;;;;;6.82;2.25;;;20.60;29.60;;;;;;5091503;28;20102;-52
2021/04/26 06:07:35;;;;;;;5.18;2.53;;;20.50;29.70;;;;;;5092337;28;20035;-59
2021/04/26 06:10:01;;;;;;;4.97;2.38;;;20.50;29.60;;;;;;5091475;28;20109;-58
2021/04/26 06:12:26;;;;;;;5.40;2.38;;;20.60;29.50;;;;;;5092458;28;20078;-58
2021/04/26 06:14:52;;;;;;;5.47;2.55;;;20.60;29.70;;;;;;5092197;28;20043;-58
2021/04/26 06:17:18;;;;;;;6.97;2.72;;;20.60;29.70;;;;;;5090186;28;20020;-59
2021/04/26 06:19:43;;;;;;;6.22;1.95;;;20.50;29.30;;;;;;5091983;28;20081;-44
2021/04/26 06:22:09;;;;;;;6.88;2.17;;;20.50;33.40;;;;;;5090053;28;20129;-50
2021/04/26 06:24:34;;;;;;;5.05;1.67;;;20.50;31.10;;;;;;5087359;28;20020;-48
2021/04/26 06:27:00;;;;;;;6.07;1.80;;;20.60;32.10;;;;;;5091320;28;20393;-54
2021/04/26 06:29:25;;;;;;;4.05;1.52;;;20.70;33.50;;;;;;5091072;28;20035;-50
2021/04/26 06:31:51;;;;;;;5.57;1.63;;;20.70;34.50;;;;;;5091909;28;20032;-49
2021/04/26 06:34:17;;;;;;;3.65;1.75;;;20.70;35.60;;;;;;5090897;28;20035;-45
2021/04/26 06:36:43;;;;;;;4.10;1.55;;;20.70;36.20;;;;;;5091726;28;20039;-48
2021/04/26 06:39:10;;;;;;;5.07;1.48;;;20.70;36.50;;;;;;5091165;28;20067;-45
2021/04/26 06:41:36;;;;;;;3.60;1.30;;;20.70;36.60;;;;;;5091764;28;20053;-48
2021/04/26 06:44:01;;;;;;;6.78;1.50;;;20.70;36.80;;;;;;5091365;28;20020;-52
2021/04/26 06:46:27;;;;;;;6.20;1.60;;;20.70;36.90;;;;;;5091557;28;20032;-49
2021/04/26 06:48:53;;;;;;;3.00;1.60;;;20.70;36.90;;;;;;5088276;28;20078;-48
2021/04/26 06:51:18;;;;;;;4.68;1.60;;;20.70;37.00;;;;;;5085129;28;20429;-50
2021/04/26 06:53:44;;;;;;;4.78;1.30;;;20.70;37.00;;;;;;5090419;28;20024;-51
2021/04/26 06:56:10;;;;;;;3.03;1.35;;;20.70;37.10;;;;;;5090685;28;20128;-48
2021/04/26 06:58:35;;;;;;;4.35;1.60;;;20.70;37.10;;;;;;5090755;28;20388;-48
2021/04/26 07:01:01;;;;;;;9.35;1.60;;;20.70;37.10;;;;;;5091478;28;20170;-50
2021/04/26 07:03:26;;;;;;;2.00;1.00;;;20.70;37.10;;;;;;5090456;28;20048;-52
2021/04/26 07:05:52;;;;;;;5.90;1.70;;;20.70;37.10;;;;;;5091551;28;20032;-48
2021/04/26 07:08:18;;;;;;;2.85;1.90;;;20.70;37.10;;;;;;5089847;28;20016;-48
2021/04/26 07:10:44;;;;;;;4.72;1.63;;;20.70;37.10;;;;;;5091414;28;20059;-46
2021/04/26 07:13:09;;;;;;;3.58;1.40;;;20.70;37.10;;;;;;5088853;28;20098;-45
2021/04/26 07:15:36;;;;;;;5.00;1.92;;;20.70;37.10;;;;;;5093717;28;20058;-44
2021/04/26 07:18:01;;;;;;;5.93;1.20;;;20.70;37.10;;;;;;5094302;28;20469;-52
2021/04/26 07:20:27;;;;;;;2.92;1.05;;;20.70;37.00;;;;;;5078885;28;20040;-48
2021/04/26 07:22:53;;;;;;;4.82;1.80;;;20.70;37.00;;;;;;5074406;28;20066;-47
2021/04/26 07:25:18;;;;;;;2.78;1.25;;;20.70;37.00;;;;;;5088537;28;20032;-53
2021/04/26 07:27:44;;;;;;;2.80;1.27;;;20.70;37.00;;;;;;5093930;28;20060;-45
2021/04/26 07:30:11;;;;;;;3.78;1.45;;;20.70;37.00;;;;;;5094641;28;20055;-48
2021/04/26 07:32:37;;;;;;;2.67;1.30;;;20.70;37.00;;;;;;5095158;28;20032;-47
2021/04/26 07:35:05;;;;;;;5.32;1.70;;;20.70;37.00;;;;;;5094688;28;20036;-53
2021/04/26 07:37:30;;;;;;;3.45;1.48;;;20.70;37.00;;;;;;5094694;28;20525;-52
2021/04/26 07:39:56;;;;;;;3.38;1.02;;;20.70;36.90;;;;;;5094700;28;20111;-47
2021/04/26 07:42:22;;;;;;;3.92;1.45;;;20.80;37.00;;;;;;5093043;28;20020;-45
2021/04/26 07:44:47;;;;;;;2.95;1.88;;;20.70;36.90;;;;;;5089746;28;20435;-50
2021/04/26 07:47:13;;;;;;;2.05;1.13;;;20.70;36.90;;;;;;5093122;28;20043;-46
2021/04/26 07:49:39;;;;;;;1.98;1.33;;;20.80;36.90;;;;;;5094706;28;20024;-51
2021/04/26 07:52:06;;;;;;;2.33;1.17;;;20.80;36.90;;;;;;5093862;28;20024;-51
2021/04/26 07:54:31;;;;;;;2.53;1.30;;;20.80;36.80;;;;;;5094078;28;20030;-46
2021/04/26 07:56:57;;;;;;;2.33;1.30;;;20.70;36.80;;;;;;5094552;28;20036;-47
2021/04/26 07:59:23;;;;;;;2.42;1.05;;;20.80;36.80;;;;;;5077873;28;20032;-45
2021/04/26 08:01:49;;;;;;;1.85;1.35;;;20.80;36.80;;;;;;5075205;28;20374;-46
2021/04/26 08:04:14;;;;;;;3.85;1.60;;;20.80;36.80;;;;;;5072726;28;20043;-46
2021/04/26 08:06:40;;;;;;;3.25;1.40;;;20.80;36.80;;;;;;5074227;28;20389;-52
2021/04/26 08:09:07;;;;;;;3.95;1.40;;;20.80;36.80;;;;;;5073242;28;20040;-52
2021/04/26 08:11:33;;;;;;;4.78;1.10;;;20.80;36.80;;;;;;5073850;28;20446;-51
2021/04/26 08:13:59;;;;;;;1.73;1.08;;;20.80;36.70;;;;;;5073650;28;20052;-51
2021/04/26 08:16:24;;;;;;;2.50;1.33;;;20.80;36.70;;;;;;5073217;28;20036;-49
2021/04/26 08:18:50;;;;;;;4.22;1.30;;;20.80;36.70;;;;;;5074217;28;20393;-48
2021/04/26 08:21:16;;;;;;;3.20;1.40;;;20.80;36.70;;;;;;5072689;28;20486;-45
2021/04/26 08:23:43;;;;;;;2.75;1.20;;;20.80;36.70;;;;;;5073969;28;20119;-49
2021/04/26 08:26:10;;;;;;;2.75;1.30;;;20.80;36.70;;;;;;5072071;28;20025;-48
2021/04/26 08:28:37;;;;;;;2.92;1.33;;;20.80;36.70;;;;;;5080711;28;20047;-48
2021/04/26 08:31:06;;;;;;;5.28;1.58;;;20.80;36.60;;;;;;5093820;28;20027;-55
2021/04/26 08:33:33;;;;;;;4.22;1.10;;;20.80;36.60;;;;;;5093875;28;20036;-46
2021/04/26 08:35:59;;;;;;;2.78;1.42;;;20.80;36.70;;;;;;5093667;28;20032;-46
2021/04/26 08:38:24;;;;;;;4.50;1.30;;;20.80;36.60;;;;;;5087633;28;20024;-49
2021/04/26 08:40:50;;;;;;;2.67;1.20;;;20.90;36.70;;;;;;5093152;28;20027;-48
2021/04/26 08:43:16;;;;;;;3.45;1.30;;;20.90;37.30;;;;;;5092250;28;20027;-49
2021/04/26 08:45:41;;;;;;;2.63;1.13;;;20.90;36.70;;;;;;5093937;28;20095;-47
2021/04/26 08:48:07;;;;;;;2.22;1.10;;;20.90;36.80;;;;;;5091666;28;20030;-50
2021/04/26 08:50:34;;;;;;;2.90;0.80;;;20.90;36.80;;;;;;5093660;28;20017;-46
2021/04/26 08:52:59;;;;;;;3.95;1.90;;;20.80;36.70;;;;;;5093391;28;20051;-48
2021/04/26 08:55:25;;;;;;;2.20;1.35;;;20.90;36.80;;;;;;5070457;28;20028;-47
2021/04/26 08:57:51;;;;;;;2.15;1.20;;;20.90;36.80;;;;;;5074564;28;20462;-47
2021/04/26 09:00:18;;;;;;;2.17;1.00;;;20.90;36.80;;;;;;5092713;28;20078;-45
2021/04/26 09:02:55;;;;;;;4.40;1.73;;;20.90;36.80;;;;;;5093251;28;20051;-48
2021/04/26 09:05:27;;;;;;;3.28;1.50;;;20.90;36.90;;;;;;5092199;28;20075;-48
2021/04/26 09:07:55;;;;;;;3.33;1.13;;;20.90;36.80;;;;;;5093418;28;20036;-48
2021/04/26 09:10:50;;;;;;;1.88;1.30;;;20.90;36.80;;;;;;5092384;28;20032;-47
2021/04/26 09:13:29;;;;;;;3.35;1.33;;;20.90;36.80;;;;;;5092533;28;20024;-45
2021/04/26 09:15:58;;;;;;;2.63;1.10;;;20.90;36.90;;;;;;5093020;28;20074;-47
2021/04/26 09:18:44;;;;;;;2.28;1.10;;;20.90;36.90;;;;;;5092368;28;20115;-47
2021/04/26 09:21:46;;;;;;;4.72;1.60;;;20.90;36.90;;;;;;5092437;28;20103;-46
2021/04/26 09:24:35;;;;;;;1.88;1.15;;;20.90;36.90;;;;;;5078943;28;20430;-43
2021/04/26 09:27:01;;;;;;;2.42;1.20;;;20.90;36.90;;;;;;5092051;28;20450;-46
2021/04/26 09:29:29;;;;;;;6.15;2.15;;;20.90;36.80;;;;;;5085516;28;20028;-43
2021/04/26 09:32:18;;;;;;;1.48;1.15;;;20.90;36.80;;;;;;5089155;28;20070;-50
2021/04/26 09:34:47;;;;;;;1.67;1.10;;;20.90;36.90;;;;;;5063884;28;20041;-48
2021/04/26 09:37:18;;;;;;;3.25;1.50;;;20.90;36.80;;;;;;5068758;28;20077;-48
2021/04/26 09:40:01;;;;;;;2.25;1.10;;;20.90;36.80;;;;;;5072393;28;20112;-47
2021/04/26 09:42:40;;;;;;;;;;;20.90;36.90;;;;;;5071775;28;20603;-46
2021/04/26 09:45:19;;;;;;;2.60;1.30;;;20.90;36.90;;;;;;5071933;28;19905;-52
2021/04/26 09:47:45;;;;;;;2.05;1.27;;;20.90;36.90;;;;;;5085479;28;20024;-47
2021/04/26 09:50:10;;;;;;;3.03;1.30;;;20.90;36.90;;;;;;5077368;28;20091;-46
2021/04/26 09:52:36;;;;;;;3.25;1.00;;;20.90;36.90;;;;;;5072263;28;20024;-49
2021/04/26 09:55:03;;;;;;;2.85;1.20;;;20.90;36.90;;;;;;5072175;28;20485;-48
2021/04/26 09:57:29;;;;;;;2.03;1.17;;;20.90;36.90;;;;;;5071184;28;20115;-48
2021/04/26 09:59:57;;;;;;;3.75;1.40;;;20.90;37.00;;;;;;5091130;28;20381;-45
2021/04/26 10:02:23;;;;;;;2.22;1.27;;;20.90;36.90;;;;;;5091800;28;20508;-44
2021/04/26 10:04:50;;;;;;;1.70;1.08;;;21.00;37.10;;;;;;5093377;28;20059;-49
2021/04/26 10:07:16;;;;;;;2.20;1.15;;;20.90;37.10;;;;;;5089674;28;20023;-46
2021/04/26 10:09:45;;;;;;;3.53;1.20;;;20.90;37.00;;;;;;5092935;28;20381;-49
2021/04/26 10:12:10;;;;;;;4.65;1.50;;;20.90;37.10;;;;;;5073159;28;20355;-47
2021/04/26 10:14:41;;;;;;;2.33;1.20;;;21.00;37.40;;;;;;5071586;28;20024;-45
2021/04/26 10:17:13;;;;;;;2.58;1.13;;;20.90;37.30;;;;;;5071310;28;20051;-52
2021/04/26 10:19:50;;;;;;;2.30;1.25;;;20.90;37.40;;;;;;5071768;28;20078;-45
2021/04/26 10:22:43;;;;;;;3.13;1.10;;;20.90;37.40;;;;;;5069700;28;20181;-45
2021/04/26 10:25:10;;;;;;;2.95;1.20;;;21.00;37.50;;;;;;5070626;28;20052;-51
2021/04/26 10:27:38;;;;;;;2.13;1.10;;;21.00;37.50;;;;;;5081638;28;20082;-53
2021/04/26 10:30:10;;;;;;;1.83;1.10;;;21.00;37.50;;;;;;5090872;28;20420;-50
2021/04/26 10:33:05;;;;;;;2.60;1.52;;;21.00;37.50;;;;;;5091921;28;20028;-46
2021/04/26 10:35:46;;;;;;;4.32;1.10;;;21.00;37.40;;;;;;5091274;28;20040;-48
2021/04/26 10:38:47;;;;;;;4.00;1.23;;;21.00;37.50;;;;;;5091071;28;20024;-50
2021/04/26 10:41:53;;;;;;;2.38;1.20;;;21.00;37.50;;;;;;5047509;28;20042;-50
2021/04/26 10:44:40;;;;;;;2.75;1.30;;;20.90;37.50;;;;;;5091043;28;20032;-45
2021/04/26 10:47:17;;;;;;;3.08;1.73;;;21.00;37.50;;;;;;5091576;28;20020;-52
2021/04/26 10:50:06;;;;;;;2.35;1.10;;;21.00;37.50;;;;;;5093136;28;20055;-45
2021/04/26 10:52:36;;;;;;;4.18;1.30;;;21.00;37.40;;;;;;5080961;28;20032;-49
2021/04/26 10:55:05;;;;;;;2.08;1.23;;;21.00;37.50;;;;;;5095411;28;20024;-45
2021/04/26 10:57:49;;;;;;;2.47;1.02;;;21.00;37.60;;;;;;5094960;28;20384;-47
2021/04/26 11:00:21;;;;;;;1.90;1.20;;;21.00;37.50;;;;;;5075068;28;20055;-52
2021/04/26 11:02:54;;;;;;;1.50;1.00;;;21.00;37.40;;;;;;5075267;28;20025;-44
2021/04/26 11:05:28;;;;;;;2.08;1.52;;;21.00;37.50;;;;;;5072956;28;20049;-47
2021/04/26 11:08:02;;;;;;;2.22;1.00;;;21.00;37.40;;;;;;5076553;28;20040;-46
2021/04/26 11:10:35;;;;;;;2.90;1.10;;;21.00;37.40;;;;;;5075897;28;20598;-48
2021/04/26 11:13:22;;;;;;;4.38;1.30;;;21.00;37.50;;;;;;5075476;28;20016;-50
2021/04/26 11:16:17;;;;;;;2.55;1.20;;;21.00;37.60;;;;;;5075120;28;20035;-46
2021/04/26 11:18:57;;;;;;;1.88;1.20;;;21.00;37.80;;;;;;5075274;28;20031;-48
2021/04/26 11:21:42;;;;;;;2.28;1.20;;;21.00;38.10;;;;;;5084922;28;20039;-47
2021/04/26 11:24:08;;;;;;;1.80;1.35;;;21.00;38.00;;;;;;5094694;28;20024;-53
2021/04/26 11:26:34;;;;;;;2.70;1.33;;;21.00;38.20;;;;;;5094981;28;20034;-47
2021/04/26 11:29:10;;;;;;;2.78;1.30;;;21.00;38.10;;;;;;5094734;28;20038;-49
2021/04/26 11:31:42;;;;;;;1.88;1.17;;;21.00;38.20;;;;;;5095202;28;20028;-48
2021/04/26 11:34:19;;;;;;;1.67;0.98;;;21.00;38.20;;;;;;5094985;28;20028;-55
2021/04/26 11:37:15;;;;;;;1.45;1.02;;;21.00;38.10;;;;;;5095131;28;20032;-48
2021/04/26 11:39:41;;;;;;;1.75;1.30;;;21.00;38.10;;;;;;5077759;28;20039;-46
2021/04/26 11:42:11;;;;;;;1.85;1.17;;;21.00;38.10;;;;;;5094795;28;20058;-54
2021/04/26 11:44:41;;;;;;;2.75;1.00;;;21.00;38.10;;;;;;5094937;28;20035;-45
2021/04/26 11:47:08;;;;;;;2.08;1.20;;;21.00;38.10;;;;;;5094318;28;20031;-45
2021/04/26 11:49:44;;;;;;;2.17;1.38;;;21.00;38.70;;;;;;5094166;28;20043;-48
2021/04/26 11:52:29;;;;;;;1.95;1.20;;;21.00;38.10;;;;;;5094544;28;20049;-52
2021/04/26 11:55:04;;;;;;;1.52;1.05;;;21.10;38.10;;;;;;5094722;28;20035;-47
2021/04/26 11:57:44;;;;;;;2.13;0.93;;;21.10;38.30;;;;;;5094023;28;20046;-46
2021/04/26 12:00:19;;;;;;;1.75;1.10;;;21.10;38.60;;;;;;5073639;28;20473;-53
2021/04/26 12:02:49;;;;;;;2.80;1.30;;;21.10;38.70;;;;;;5074109;28;20024;-49
2021/04/26 12:05:24;;;;;;;1.77;1.17;;;21.10;38.70;;;;;;5073595;28;20473;-47
2021/04/26 12:07:51;;;;;;;2.42;1.00;;;21.10;38.70;;;;;;5074095;28;20028;-46
2021/04/26 12:10:47;;;;;;;2.65;1.30;;;21.00;38.60;;;;;;5073377;28;20021;-47
2021/04/26 12:13:12;;;;;;;1.50;1.10;;;21.10;38.70;;;;;;5056189;28;20469;-47
2021/04/26 12:15:39;;;;;;;2.22;1.20;;;21.10;38.60;;;;;;5084608;28;20028;-48
2021/04/26 12:18:08;;;;;;;4.00;1.10;;;21.10;38.60;;;;;;5092746;28;20525;-47
2021/04/26 12:20:36;;;;;;;1.55;1.10;;;21.10;38.60;;;;;;5093034;28;20032;-50
2021/04/26 12:23:14;;;;;;;3.15;1.58;;;21.10;38.60;;;;;;5094058;28;20024;-50
2021/04/26 12:25:42;;;;;;;1.92;1.00;;;21.10;38.60;;;;;;5093987;28;20067;-45
2021/04/26 12:28:09;;;;;;;1.33;0.93;;;21.10;38.60;;;;;;5094073;28;20069;-49
2021/04/26 12:30:50;;;;;;;2.22;1.42;;;21.10;38.50;;;;;;5093682;28;20069;-48
2021/04/26 12:33:34;;;;;;;1.73;1.27;;;21.10;38.60;;;;;;5093207;28;20028;-46
2021/04/26 12:36:01;;;;;;;2.25;1.00;;;21.10;38.50;;;;;;5094146;28;20385;-45
2021/04/26 12:38:35;;;;;;;4.15;1.30;;;21.10;38.50;;;;;;5092997;28;20035;-48
2021/04/26 12:41:01;;;;;;;2.03;1.13;;;21.10;38.50;;;;;;5093891;28;20031;-46
2021/04/26 12:43:37;;;;;;;1.60;1.02;;;21.10;38.40;;;;;;5092782;28;20028;-48
2021/04/26 12:46:11;;;;;;;2.85;1.38;;;21.10;38.40;;;;;;5093829;28;20032;-46
2021/04/26 12:48:38;;;;;;;2.65;1.30;;;21.10;38.40;;;;;;5093459;28;20024;-47
2021/04/26 12:51:04;;;;;;;1.17;0.90;;;21.10;38.30;;;;;;5093543;28;20031;-47
2021/04/26 12:53:35;;;;;;;1.88;1.00;;;21.10;38.30;;;;;;5092580;28;20658;-51
2021/04/26 12:56:04;;;;;;;1.93;1.13;;;21.10;38.20;;;;;;5084693;28;20040;-45
2021/04/26 12:58:30;;;;;;;2.40;1.08;;;21.10;38.20;;;;;;5088793;28;20381;-50